Terminal Aerodrome Forecast
Issued by NWS

Current Version | Previous Version | Text Only | Print | Product List | Glossary On
Versions: 1 2 3 4 5 6 7 8 9 10 11 12 13 14 15 16 17 18
783
FTUS42 KFFC 131125
TAFFTY
TAF
KFTY 131125Z 1312/1412 32012G20KT P6SM SKC
     FM131600 33009KT P6SM SKC
     FM140200 34005KT P6SM FEW200
     FM140800 04004KT P6SM FEW080 SCT150=

USA.gov is the U.S. government's official web portal to all federal, state and local government web resources and services.